Data for 05/04/2010

Time Sea-Level Adjusted Pressure Absolute Pressure Temperature Relative Humidity Dew Point   
(mb) (inHg) (mb) (inHg) (C) (F) (%) (C) (F)
00:05 1010 29.83 839 24.78 1.1 33.9 67 -4.4 24.1
00:10 1010 29.83 839 24.78 1.1 33.9 67 -4.5 24
00:15 1010 29.83 839 24.78 1 33.9 64 -4.9 23.2
00:20 1010 29.83 839 24.78 1 33.8 65 -4.8 23.4
00:25 1010 29.83 839 24.78 0.9 33.6 63 -5.3 22.5
00:30 1010 29.83 839 24.78 0.8 33.5 65 -5.1 22.9
00:35 1010 29.83 839 24.78 0.8 33.4 62 -5.6 21.9
00:40 1010 29.83 839 24.78 0.7 33.3 59 -6.4 20.5
00:45 1010 29.83 839 24.78 0.7 33.2 58 -6.6 20.1
00:50 1010 29.83 839 24.78 0.5 32.9 61 -6.2 20.8
00:55 1010 29.83 839 24.78 0.4 32.7 60 -6.6 20.1
01:00 1010 29.83 839 24.78 0.5 33 55 -7.4 18.7
01:05 1010 29.83 839 24.78 0.7 33.3 56 -7.2 19.1
01:10 1010 29.83 839 24.78 0.6 33 51 -8.5 16.8
01:15 1010 29.83 839 24.78 0.6 33.1 51 -8.4 16.8
01:20 1010 29.83 839 24.78 0.5 33 52 -8.2 17.2
01:25 1010 29.83 839 24.78 0.3 32.5 56 -7.6 18.4
01:30 1010 29.83 839 24.78 0.2 32.4 57 -7.2 19
01:35 1010 29.83 839 24.78 0 32.1 56 -7.6 18.3
01:40 1010 29.83 839 24.78 -0.1 31.8 56 -7.8 17.9
01:45 1010 29.83 839 24.78 0 32 49 -9.6 14.8
01:50 1010 29.83 839 24.78 0.2 32.4 49 -9.3 15.2
01:55 1010 29.83 839 24.78 0.1 32.1 52 -8.7 16.3
02:00 1010 29.83 839 24.78 -0.1 31.7 53 -8.5 16.7
02:05 1010 29.83 839 24.78 -0.3 31.4 57 -7.7 18.1
02:10 1010 29.83 839 24.78 -0.6 30.8 58 -8 17.7
02:15 1010 29.83 839 24.78 -0.6 30.9 55 -8.6 16.5
02:20 1010 29.83 839 24.78 -0.5 31.1 57 -7.9 17.8
02:25 1010 29.83 839 24.78 -0.8 30.6 59 -7.7 18.1
02:30 1010 29.83 839 24.78 -1 30.2 59 -7.9 17.7
02:35 1010 29.83 839 24.78 -1 30.3 59 -7.9 17.7
02:40 1010 29.83 840 24.81 -0.8 30.6 60 -7.6 18.3
02:45 1010 29.83 840 24.81 -0.9 30.4 62 -7.3 18.9
02:50 1010 29.83 840 24.81 -0.9 30.3 57 -8.3 17
02:55 1010 29.83 839 24.78 -0.7 30.7 57 -8.2 17.2
03:00 1010 29.83 840 24.81 -0.7 30.8 57 -8.2 17.2
03:05 1011 29.85 840 24.81 -0.6 30.9 57 -8.2 17.2
03:10 1011 29.85 840 24.81 -0.6 30.9 58 -7.8 17.9
03:15 1011 29.85 840 24.81 -0.9 30.5 59 -7.8 17.9
03:20 1011 29.85 840 24.81 -1.1 30.1 60 -7.9 17.9
03:25 1011 29.85 840 24.81 -1.2 29.9 60 -7.9 17.7
03:30 1011 29.85 840 24.81 -1.2 29.8 59 -8.1 17.4
03:35 1011 29.85 840 24.81 -1.2 29.8 60 -8.1 17.5
03:40 1011 29.85 840 24.81 -1.4 29.5 62 -7.7 18.1
03:45 1011 29.85 840 24.81 -1.5 29.4 62 -7.9 17.8
03:50 1011 29.85 840 24.81 -1.5 29.3 62 -7.9 17.8
03:55 1011 29.85 840 24.81 -1.5 29.3 59 -8.4 16.8
04:00 1011 29.85 840 24.81 -1.3 29.6 57 -8.7 16.3
04:05 1011 29.85 841 24.83 -1.2 29.8 58 -8.5 16.7
04:10 1011 29.85 841 24.83 -1.3 29.6 59 -8.3 17.1
04:15 1011 29.85 841 24.83 -1.6 29.1 62 -8 17.6
04:20 1011 29.85 841 24.83 -1.9 28.6 60 -8.5 16.6
04:25 1011 29.85 840 24.81 -1.8 28.7 60 -8.6 16.5
04:30 1011 29.85 841 24.83 -1.7 28.9 58 -8.9 15.9
04:35 1012 29.88 841 24.83 -1.5 29.3 56 -9.1 15.6
04:40 1012 29.88 841 24.83 -1.4 29.5 53 -9.8 14.4
04:45 1011 29.85 841 24.83 -1.4 29.5 55 -9.4 15.2
04:50 1011 29.85 840 24.81 -1.4 29.4 54 -9.6 14.7
04:55 1011 29.85 840 24.81 -1.5 29.2 53 -10 14
05:00 1011 29.85 841 24.83 -1.6 29.1 53 -9.9 14.1
05:05 1012 29.88 841 24.83 -1.6 29.2 54 -9.8 14.4
05:10 1011 29.85 841 24.83 -1.6 29.1 54 -9.8 14.3
05:15 1011 29.85 841 24.83 -1.6 29 54 -9.7 14.5
05:20 1011 29.85 841 24.83 -1.7 28.9 54 -9.9 14.2
05:25 1012 29.88 841 24.83 -1.6 29.1 52 -10.3 13.4
05:30 1012 29.88 841 24.83 -1.5 29.3 54 -9.6 14.8
05:35 1012 29.88 841 24.83 -1.7 29 55 -9.5 14.9
05:40 1012 29.88 841 24.83 -1.9 28.6 58 -9.2 15.5
05:45 1012 29.88 841 24.83 -2 28.5 58 -9.2 15.5
05:50 1012 29.88 841 24.83 -2 28.4 58 -9.3 15.2
05:55 1012 29.88 841 24.83 -1.9 28.6 56 -9.7 14.6
06:00 1012 29.88 841 24.83 -1.7 28.9 55 -9.5 14.9
06:05 1012 29.88 841 24.83 -1.7 28.9 57 -9.2 15.4
06:10 1012 29.88 841 24.83 -1.7 29 60 -8.4 16.8
06:15 1012 29.88 841 24.83 -1.8 28.7 60 -8.7 16.4
06:20 1012 29.88 841 24.83 -1.8 28.8 55 -9.6 14.7
06:25 1012 29.88 841 24.83 -1.6 29.2 56 -9.3 15.2
06:30 1012 29.88 841 24.83 -1.5 29.4 53 -9.8 14.4
06:35 1012 29.88 842 24.86 -1.3 29.6 55 -9.3 15.3
06:40 1013 29.91 842 24.86 -1.3 29.6 55 -9.2 15.5
06:45 1013 29.91 842 24.86 -1.3 29.6 59 -8.4 16.8
06:50 1013 29.91 842 24.86 -1.6 29.2 58 -8.7 16.3
06:55 1013 29.91 842 24.86 -1.4 29.4 56 -9.1 15.7
07:00 1013 29.91 842 24.86 -1.4 29.6 58 -8.6 16.6
07:05 1013 29.91 842 24.86 -1.5 29.3 59 -8.4 16.8
07:10 1013 29.91 842 24.86 -1.6 29.2 59 -8.6 16.5
07:15 1013 29.91 842 24.86 -1.6 29.2 59 -8.6 16.5
07:20 1013 29.91 842 24.86 -1.5 29.2 57 -9 15.9
07:25 1013 29.91 842 24.86 -1.5 29.3 58 -8.8 16.2
07:30 1013 29.91 843 24.89 -1.4 29.5 56 -9 15.7
07:35 1013 29.91 843 24.89 -1.3 29.7 57 -8.6 16.4
07:40 1013 29.91 843 24.89 -1.2 29.9 57 -8.6 16.5
07:45 1013 29.91 843 24.89 -1.1 30.1 54 -9.2 15.4
07:50 1014 29.94 843 24.89 -0.9 30.3 54 -9.1 15.6
07:55 1014 29.94 843 24.89 -0.9 30.4 55 -8.8 16.1
08:00 1014 29.94 843 24.89 -0.9 30.4 54 -9.1 15.6
08:05 1014 29.94 843 24.89 -0.9 30.4 50 -10 14
08:10 1014 29.94 843 24.89 -0.6 30.8 50 -9.9 14.1
08:15 1014 29.94 843 24.89 -0.5 31.2 51 -9.5 14.9
08:20 1014 29.94 843 24.89 -0.5 31 54 -8.8 16.1
08:25 1014 29.94 843 24.89 -0.4 31.2 52 -9 15.7
08:30 1014 29.94 843 24.89 -0.3 31.4 53 -8.7 16.3
08:35 1014 29.94 843 24.89 -0.2 31.7 48 -10 14
08:40 1014 29.94 843 24.89 -0.2 31.7 47 -10.1 13.9
08:45 1014 29.94 843 24.89 -0.2 31.7 47 -10.3 13.5
08:50 1014 29.94 843 24.89 -0.1 31.7 48 -9.8 14.4
08:55 1014 29.94 844 24.92 -0.2 31.7 48 -10 14
09:00 1014 29.94 844 24.92 -0.1 31.8 46 -10.5 13.1
09:05 1015 29.97 844 24.92 0.1 32.2 50 -9.2 15.4
09:10 1015 29.97 844 24.92 0.2 32.3 46 -10.3 13.5
09:15 1015 29.97 844 24.92 0.2 32.4 45 -10.4 13.3
09:20 1015 29.97 844 24.92 0.3 32.5 47 -9.7 14.5
09:25 1015 29.97 844 24.92 0.5 33 45 -10.2 13.7
09:30 1015 29.97 844 24.92 0.6 33 47 -9.6 14.7
09:35 1015 29.97 844 24.92 0.8 33.4 44 -10.2 13.7
09:40 1015 29.97 844 24.92 0.9 33.7 44 -9.9 14.1
09:45 1015 29.97 844 24.92 1 33.8 46 -9.3 15.2
09:50 1015 29.97 844 24.92 1 33.8 43 -10.1 13.8
09:55 1015 29.97 844 24.92 1 33.8 44 -9.9 14.2
10:00 1015 29.97 844 24.92 1 33.8 45 -9.7 14.5
10:05 1015 29.97 844 24.92 1 33.8 42 -10.5 13.1
10:10 1015 29.97 844 24.92 1.2 34.1 41 -10.7 12.8
10:15 1015 29.97 844 24.92 1.2 34.1 45 -9.5 14.8
10:20 1015 29.97 844 24.92 1.3 34.4 39 -11.1 12.1
10:25 1015 29.97 844 24.92 1.3 34.3 40 -11 12.2
10:30 1015 29.97 845 24.95 1.6 34.9 40 -10.5 13.1
10:35 1015 29.97 845 24.95 1.9 35.4 36 -11.8 10.8
10:40 1016 30 845 24.95 1.7 35 38 -11.3 11.6
10:45 1016 30 845 24.95 1.8 35.3 41 -10.1 13.7
10:50 1016 30 845 24.95 2.2 36 37 -11.2 11.9
10:55 1016 30 845 24.95 2.3 36.1 36 -11.4 11.5
11:00 1016 30 845 24.95 2.5 36.5 37 -10.9 12.3
11:05 1016 30 845 24.95 2.3 36.1 40 -10.1 13.8
11:10 1016 30 845 24.95 2.2 36 39 -10.3 13.4
11:15 1016 30 845 24.95 2.7 36.8 34 -11.5 11.3
11:20 1016 30 845 24.95 2.8 37 36 -10.7 12.7
11:25 1016 30 845 24.95 3.1 37.5 36 -10.7 12.7
11:30 1016 30 845 24.95 2.9 37.2 35 -11.2 11.8
11:35 1016 30 845 24.95 3.1 37.6 34 -11.3 11.7
11:40 1016 30 845 24.95 3.3 37.9 34 -11.2 11.8
11:45 1016 30 845 24.95 3.3 37.9 33 -11.6 11.2
11:50 1016 30 845 24.95 3.1 37.5 32 -12.1 10.3
11:55 1016 30 845 24.95 3.1 37.6 34 -11.2 11.9
12:00 1016 30 845 24.95 3.4 38.1 35 -10.5 13
12:05 1016 30 845 24.95 3.2 37.7 34 -11.4 11.5
12:10 1016 30 845 24.95 3.5 38.3 34 -11 12.2
12:15 1016 30 845 24.95 3.6 38.4 32 -11.8 10.8
12:20 1016 30 845 24.95 3.6 38.6 32 -11.6 11.2
12:25 1016 30 845 24.95 3.7 38.6 33 -11.3 11.7
12:30 1016 30 845 24.95 3.6 38.5 35 -10.5 13
12:35 1016 30 845 24.95 3.8 38.8 34 -10.7 12.7
12:40 1016 30 845 24.95 3.9 39 31 -11.6 11.1
12:45 1016 30 845 24.95 3.8 38.9 32 -11.3 11.6
12:50 1016 30 845 24.95 4 39.1 33 -11 12.1
12:55 1016 30 845 24.95 3.9 39 31 -11.8 10.8
13:00 1016 30 845 24.95 4.1 39.4 32 -11.2 11.9
13:05 1016 30 845 24.95 4 39.2 32 -11.4 11.5
13:10 1016 30 845 24.95 3.9 39 31 -11.6 11.1
13:15 1016 30 845 24.95 4.4 40 30 -11.7 11
13:20 1016 30 845 24.95 4.4 39.9 33 -10.7 12.8
13:25 1016 30 845 24.95 4.2 39.6 34 -10.3 13.5
13:30 1016 30 845 24.95 4.4 40 32 -10.9 12.4
13:35 1016 30 846 24.98 4.8 40.7 31 -10.9 12.3
13:40 1016 30 845 24.95 5.1 41.2 32 -10.4 13.3
13:45 1016 30 846 24.98 4.4 40 30 -11.9 10.6
13:50 1016 30 846 24.98 4.5 40 32 -11 12.2
13:55 1016 30 846 24.98 5.1 41.1 29 -11.7 10.9
14:00 1016 30 846 24.98 5.1 41.3 31 -10.6 13
14:05 1016 30 846 24.98 5.2 41.3 31 -10.4 13.2
14:10 1017 30.03 846 24.98 4.9 40.8 29 -11.7 11
14:15 1017 30.03 846 24.98 4.8 40.6 30 -11.2 11.8
14:20 1017 30.03 846 24.98 4.7 40.5 31 -11 12.2
14:25 1017 30.03 846 24.98 4.8 40.7 30 -11.2 11.9
14:30 1017 30.03 846 24.98 5.1 41.2 29 -11.5 11.3
14:35 1017 30.03 846 24.98 5.2 41.4 30 -11 12.1
14:40 1017 30.03 846 24.98 5 41.1 30 -11.4 11.5
14:45 1017 30.03 846 24.98 5.3 41.5 28 -11.7 11
14:50 1017 30.03 846 24.98 5.4 41.7 29 -11.5 11.4
14:55 1017 30.03 846 24.98 5.3 41.6 29 -11.5 11.3
15:00 1017 30.03 846 24.98 5.5 42 28 -11.5 11.4
15:05 1017 30.03 846 24.98 5.3 41.5 28 -11.7 10.9
15:10 1017 30.03 846 24.98 5.7 42.2 28 -11.3 11.7
15:15 1017 30.03 846 24.98 5.9 42.7 28 -11.2 11.8
15:20 1017 30.03 846 24.98 6.1 43 27 -11.4 11.5
15:25 1017 30.03 846 24.98 5.8 42.5 28 -11.2 11.9
15:30 1017 30.03 846 24.98 5.5 41.9 29 -11 12.1
15:35 1017 30.03 846 24.98 5.6 42.1 30 -10.8 12.6
15:40 1017 30.03 846 24.98 5.9 42.7 28 -11.1 12.1
15:45 1017 30.03 846 24.98 6 42.8 28 -11.4 11.5
15:50 1017 30.03 846 24.98 6.2 43.2 27 -11.5 11.3
15:55 1017 30.03 846 24.98 6 42.7 27 -11.6 11.1
16:00 1017 30.03 846 24.98 6.1 42.9 27 -11.6 11.2
16:05 1017 30.03 846 24.98 6 42.7 29 -10.9 12.3
16:10 1017 30.03 846 24.98 5.9 42.5 28 -11.3 11.6
16:15 1017 30.03 846 24.98 6.1 42.9 28 -11.2 11.8
16:20 1017 30.03 846 24.98 6.2 43.1 26 -12.2 10
16:25 1017 30.03 846 24.98 5.7 42.2 28 -11.5 11.3
16:30 1017 30.03 846 24.98 5.8 42.4 28 -11.5 11.3
16:35 1017 30.03 846 24.98 5.5 42 28 -11.6 11.1
16:40 1017 30.03 846 24.98 5.4 41.7 29 -11.5 11.3
16:45 1017 30.03 846 24.98 5.3 41.6 27 -12.3 9.8
16:50 1017 30.03 846 24.98 5.2 41.4 29 -11.6 11.2
16:55 1017 30.03 846 24.98 5.3 41.5 28 -11.7 10.9
17:00 1017 30.03 846 24.98 5.2 41.4 28 -11.8 10.8
17:05 1017 30.03 846 24.98 5.3 41.6 28 -11.8 10.7
17:10 1017 30.03 846 24.98 5.1 41.2 29 -11.6 11.1
17:15 1017 30.03 846 24.98 5.2 41.4 28 -11.7 10.9
17:20 1017 30.03 846 24.98 5.4 41.7 27 -11.9 10.5
17:25 1017 30.03 846 24.98 5.4 41.7 28 -11.6 11.2
17:30 1017 30.03 846 24.98 5.7 42.3 27 -11.8 10.8
17:35 1017 30.03 846 24.98 5.7 42.3 26 -12.2 10.1
17:40 1017 30.03 846 24.98 5.8 42.5 27 -11.8 10.7
17:45 1017 30.03 846 24.98 5.6 42 28 -11.6 11.1
17:50 1017 30.03 846 24.98 5.5 41.8 28 -11.7 10.9
17:55 1017 30.03 847 25.01 5.2 41.4 29 -11.3 11.7
18:00 1017 30.03 847 25.01 5.2 41.3 29 -11.4 11.5
18:05 1018 30.06 847 25.01 4.9 40.8 29 -11.6 11.1
18:10 1018 30.06 847 25.01 4.9 40.8 30 -11.4 11.5
18:15 1018 30.06 847 25.01 4.8 40.6 31 -11.1 12
18:20 1018 30.06 847 25.01 4.7 40.4 31 -11.2 11.8
18:25 1018 30.06 847 25.01 4.7 40.4 32 -10.9 12.5
18:30 1018 30.06 847 25.01 4.6 40.2 32 -10.7 12.8
18:35 1018 30.06 847 25.01 4.6 40.2 31 -11.2 11.9
18:40 1018 30.06 847 25.01 4.4 39.9 31 -11.3 11.6
18:45 1018 30.06 847 25.01 4.4 39.9 32 -11.1 12
18:50 1018 30.06 847 25.01 4.4 39.9 32 -10.7 12.7
18:55 1018 30.06 847 25.01 4.4 39.8 32 -11.1 12.1
19:00 1018 30.06 847 25.01 4.1 39.4 34 -10.5 13.1
19:05 1018 30.06 847 25.01 4 39.2 34 -10.4 13.3
19:10 1018 30.06 847 25.01 3.9 39 33 -10.8 12.5
19:15 1018 30.06 847 25.01 3.8 38.9 33 -10.9 12.4
19:20 1018 30.06 847 25.01 3.9 39 33 -11 12.2
19:25 1018 30.06 847 25.01 3.9 39 32 -11.3 11.7
19:30 1018 30.06 847 25.01 3.8 38.8 33 -11.3 11.7
19:35 1018 30.06 847 25.01 3.7 38.7 33 -11.3 11.7
19:40 1018 30.06 847 25.01 3.7 38.7 32 -11.5 11.4
19:45 1018 30.06 847 25.01 3.7 38.7 32 -11.5 11.3
19:50 1018 30.06 847 25.01 3.7 38.7 32 -11.5 11.2
19:55 1018 30.06 848 25.04 3.7 38.7 32 -11.4 11.5
20:00 1018 30.06 848 25.04 3.8 38.8 32 -11.6 11.1
20:05 1018 30.06 848 25.04 3.7 38.7 32 -11.5 11.2
20:10 1018 30.06 848 25.04 3.7 38.6 32 -11.5 11.4
20:15 1018 30.06 848 25.04 3.5 38.2 32 -11.6 11.1
20:20 1018 30.06 848 25.04 3.2 37.8 32 -11.8 10.8
20:25 1018 30.06 848 25.04 3.1 37.6 32 -11.9 10.6
20:30 1019 30.09 848 25.04 3 37.4 33 -11.7 11
20:35 1019 30.09 848 25.04 2.9 37.2 34 -11.7 11
20:40 1019 30.09 848 25.04 2.8 37 35 -11.2 11.8
20:45 1019 30.09 848 25.04 2.7 36.8 35 -11.2 11.8
20:50 1019 30.09 848 25.04 2.6 36.6 36 -11.1 12
20:55 1019 30.09 848 25.04 2.4 36.4 37 -11 12.3
21:00 1019 30.09 848 25.04 2.4 36.2 37 -10.9 12.4
21:05 1019 30.09 848 25.04 2.3 36.2 38 -10.6 12.9
21:10 1019 30.09 848 25.04 2.2 35.9 39 -10.4 13.3
21:15 1019 30.09 848 25.04 2.1 35.7 40 -10.3 13.5
21:20 1019 30.09 848 25.04 2 35.5 40 -10.3 13.4
21:25 1019 30.09 848 25.04 1.9 35.4 41 -10.1 13.8
21:30 1019 30.09 849 25.07 1.8 35.2 41 -10 14
21:35 1019 30.09 849 25.07 1.6 34.9 45 -9.1 15.7
21:40 1019 30.09 849 25.07 1.2 34.1 47 -9 15.7
21:45 1020 30.12 849 25.07 1 33.9 47 -9 15.8
21:50 1020 30.12 849 25.07 1 33.7 48 -9 15.8
21:55 1020 30.12 849 25.07 0.9 33.7 47 -9.1 15.6
22:00 1020 30.12 849 25.07 0.9 33.7 47 -9.2 15.5
22:05 1020 30.12 849 25.07 1 33.9 45 -9.7 14.5
22:10 1020 30.12 849 25.07 1.2 34.1 45 -9.4 15.1
22:15 1020 30.12 849 25.07 1.1 34 46 -9.2 15.4
22:20 1020 30.12 849 25.07 1 33.8 47 -9 15.9
22:25 1020 30.12 849 25.07 0.7 33.3 48 -9.1 15.7
22:30 1020 30.12 849 25.07 0.6 33.1 49 -9 15.8
22:35 1020 30.12 849 25.07 0.6 33 47 -9.4 15.1
22:40 1020 30.12 849 25.07 0.6 33 47 -9.4 15.1
22:45 1020 30.12 849 25.07 0.6 33 48 -9.3 15.3
22:50 1020 30.12 849 25.07 0.5 33 48 -9.3 15.2
22:55 1020 30.12 849 25.07 0.6 33 48 -9.3 15.2
23:00 1020 30.12 849 25.07 0.6 33 48 -9.2 15.5
23:05 1020 30.12 849 25.07 0.5 32.9 48 -9.2 15.4
23:10 1020 30.12 849 25.07 0.4 32.7 49 -9 15.7
23:15 1020 30.12 849 25.07 0.2 32.4 49 -9.2 15.5
23:20 1020 30.12 849 25.07 0.1 32.3 49 -9.2 15.4
23:25 1020 30.12 850 25.1 0.1 32.2 49 -9.3 15.3
23:30 1020 30.12 850 25.1 0 32 51 -9 15.9
23:35 1020 30.12 850 25.1 -0.2 31.6 50 -9.3 15.2
23:40 1020 30.12 850 25.1 -0.1 31.8 50 -9.3 15.3
23:45 1020 30.12 850 25.1 -0.1 31.9 50 -9.2 15.5
23:50 1020 30.12 850 25.1 -0.1 31.8 51 -9 15.8
23:55 1020 30.12 850 25.1 -0.2 31.7 51 -9 15.8
24:00 1020 30.12 850 25.1 -0.3 31.4 54 -8.6 16.4